CHH7004 ZGGG-ZJHK
Flight info
| Callsign | CHH7004 |
|---|---|
| Flight time | 1h 3m |
| Altitude | 23600 |
| Route | VIBOS9 VIBOS R473 ZUH R200 BIGRO G221 GIVIV W605 DOMGO DOMGO7XA |
| Aircraft | A20N/M-SDE2E3FGHIRWXY/LB1 |
Departure
| Time | 2026-04-25 00:56 |
|---|---|
| Airport | Guangzhou Baiyun International Airport (ZGGG) |
Arrival
| Time | 2026-04-25 01:59 |
|---|---|
| Airport | Haikou Meilan International Airport (ZJHK) |
| Time | Latitude | Longitude | Altitude | Speed | Heading |
|---|---|---|---|---|---|
| 2026-04-25 00:37 | 23.39156 | 113.30424 | 53 ft | 0 kts | 247° |
| 2026-04-25 00:42 | 23.39160 | 113.30434 | 53 ft | 2 kts | 249° |
| 2026-04-25 00:42 | 23.39165 | 113.30450 | 53 ft | 2 kts | 248° |
| 2026-04-25 00:43 | 23.39171 | 113.30464 | 53 ft | 2 kts | 249° |
| 2026-04-25 00:43 | 23.39176 | 113.30479 | 53 ft | 2 kts | 248° |
| 2026-04-25 00:43 | 23.39181 | 113.30494 | 53 ft | 2 kts | 249° |
| 2026-04-25 00:43 | 23.39187 | 113.30509 | 53 ft | 2 kts | 249° |
| 2026-04-25 00:44 | 23.39192 | 113.30524 | 53 ft | 2 kts | 248° |
| 2026-04-25 00:44 | 23.39198 | 113.30539 | 53 ft | 2 kts | 249° |
| 2026-04-25 00:44 | 23.39203 | 113.30554 | 53 ft | 1 kts | 248° |
| 2026-04-25 00:44 | 23.39207 | 113.30564 | 53 ft | 2 kts | 233° |
| 2026-04-25 00:45 | 23.39218 | 113.30574 | 53 ft | 1 kts | 200° |
| 2026-04-25 00:45 | 23.39224 | 113.30576 | 53 ft | 1 kts | 189° |
| 2026-04-25 00:45 | 23.39228 | 113.30576 | 53 ft | 0 kts | 193° |
| 2026-04-25 00:45 | 23.39227 | 113.30576 | 53 ft | 0 kts | 193° |
| 2026-04-25 00:47 | 23.39223 | 113.30576 | 53 ft | 1 kts | 166° |
| 2026-04-25 00:48 | 23.39219 | 113.30606 | 53 ft | 6 kts | 85° |
| 2026-04-25 00:48 | 23.39188 | 113.30662 | 53 ft | 10 kts | 180° |
| 2026-04-25 00:48 | 23.39117 | 113.30646 | 53 ft | 10 kts | 191° |
| 2026-04-25 00:48 | 23.39034 | 113.30625 | 53 ft | 14 kts | 194° |
| 2026-04-25 00:49 | 23.38922 | 113.30594 | 53 ft | 18 kts | 194° |
| 2026-04-25 00:49 | 23.38785 | 113.30555 | 53 ft | 21 kts | 195° |
| 2026-04-25 00:49 | 23.38627 | 113.30515 | 53 ft | 24 kts | 193° |
| 2026-04-25 00:49 | 23.38453 | 113.30468 | 53 ft | 25 kts | 193° |
| 2026-04-25 00:50 | 23.38287 | 113.30424 | 53 ft | 24 kts | 194° |
| 2026-04-25 00:50 | 23.38122 | 113.30379 | 53 ft | 24 kts | 194° |
| 2026-04-25 00:50 | 23.37958 | 113.30334 | 53 ft | 24 kts | 194° |
| 2026-04-25 00:50 | 23.37788 | 113.30288 | 53 ft | 25 kts | 194° |
| 2026-04-25 00:51 | 23.37664 | 113.30260 | 53 ft | 14 kts | 174° |
| 2026-04-25 00:51 | 23.37618 | 113.30344 | 53 ft | 13 kts | 104° |
| 2026-04-25 00:51 | 23.37596 | 113.30450 | 53 ft | 15 kts | 104° |
| 2026-04-25 00:51 | 23.37564 | 113.30579 | 53 ft | 19 kts | 103° |
| 2026-04-25 00:52 | 23.37552 | 113.30636 | 53 ft | 0 kts | 100° |
| 2026-04-25 00:52 | 23.37544 | 113.30677 | 53 ft | 17 kts | 109° |
| 2026-04-25 00:52 | 23.37427 | 113.30700 | 53 ft | 22 kts | 199° |
| 2026-04-25 00:52 | 23.37276 | 113.30657 | 53 ft | 21 kts | 193° |
| 2026-04-25 00:53 | 23.37150 | 113.30622 | 53 ft | 17 kts | 194° |
| 2026-04-25 00:53 | 23.37028 | 113.30598 | 53 ft | 17 kts | 165° |
| 2026-04-25 00:53 | 23.36983 | 113.30682 | 53 ft | 11 kts | 98° |
| 2026-04-25 00:53 | 23.36986 | 113.30759 | 53 ft | 10 kts | 23° |
| 2026-04-25 00:54 | 23.37058 | 113.30782 | 53 ft | 11 kts | 19° |
| 2026-04-25 00:54 | 23.37132 | 113.30817 | 53 ft | 11 kts | 16° |
| 2026-04-25 00:54 | 23.37234 | 113.30844 | 53 ft | 24 kts | 13° |
| 2026-04-25 00:54 | 23.37615 | 113.30947 | 53 ft | 90 kts | 14° |
| 2026-04-25 00:55 | 23.38425 | 113.31165 | 53 ft | 148 kts | 14° |
| 2026-04-25 00:55 | 23.39562 | 113.31480 | 190 ft | 182 kts | 14° |
| 2026-04-25 00:56 | 23.42240 | 113.32214 | 1672 ft | 202 kts | 15° |
| 2026-04-25 00:56 | 23.43623 | 113.32584 | 2325 ft | 209 kts | 14° |
| 2026-04-25 00:56 | 23.45080 | 113.32966 | 2779 ft | 226 kts | 14° |
| 2026-04-25 00:57 | 23.46648 | 113.33381 | 3431 ft | 234 kts | 14° |
| 2026-04-25 00:57 | 23.48244 | 113.33810 | 4188 ft | 238 kts | 13° |
| 2026-04-25 00:57 | 23.49833 | 113.34240 | 4920 ft | 242 kts | 13° |
| 2026-04-25 00:57 | 23.51482 | 113.34688 | 5677 ft | 245 kts | 12° |
| 2026-04-25 00:58 | 23.53142 | 113.35136 | 6402 ft | 250 kts | 12° |
| 2026-04-25 00:58 | 23.54842 | 113.35596 | 7148 ft | 253 kts | 11° |
| 2026-04-25 00:58 | 23.56565 | 113.35996 | 7910 ft | 255 kts | 8° |
| 2026-04-25 00:58 | 23.58308 | 113.36330 | 8664 ft | 258 kts | 7° |
| 2026-04-25 00:59 | 23.60096 | 113.36540 | 9410 ft | 258 kts | 351° |
| 2026-04-25 00:59 | 23.61764 | 113.35961 | 10139 ft | 255 kts | 326° |
| 2026-04-25 00:59 | 23.63056 | 113.34636 | 10767 ft | 261 kts | 303° |
| 2026-04-25 00:59 | 23.63735 | 113.32758 | 11118 ft | 279 kts | 281° |
| 2026-04-25 01:00 | 23.64009 | 113.30602 | 11467 ft | 296 kts | 279° |
| 2026-04-25 01:00 | 23.64309 | 113.28313 | 11774 ft | 314 kts | 279° |
| 2026-04-25 01:00 | 23.64635 | 113.25903 | 12070 ft | 331 kts | 280° |
| 2026-04-25 01:00 | 23.64981 | 113.23370 | 12349 ft | 347 kts | 280° |
| 2026-04-25 01:01 | 23.65344 | 113.20709 | 12610 ft | 363 kts | 279° |
| 2026-04-25 01:01 | 23.65441 | 113.17917 | 12835 ft | 381 kts | 264° |
| 2026-04-25 01:01 | 23.64643 | 113.15094 | 13053 ft | 399 kts | 245° |
| 2026-04-25 01:01 | 23.62959 | 113.12626 | 13342 ft | 416 kts | 227° |
| 2026-04-25 01:02 | 23.60809 | 113.10480 | 13842 ft | 421 kts | 223° |
| 2026-04-25 01:02 | 23.58291 | 113.08788 | 14326 ft | 430 kts | 206° |
| 2026-04-25 01:02 | 23.55400 | 113.07917 | 14831 ft | 438 kts | 190° |
| 2026-04-25 01:02 | 23.52348 | 113.07805 | 15338 ft | 443 kts | 182° |
| 2026-04-25 01:03 | 23.49239 | 113.07861 | 15791 ft | 447 kts | 181° |
| 2026-04-25 01:03 | 23.46132 | 113.07916 | 16227 ft | 451 kts | 181° |
| 2026-04-25 01:03 | 23.42950 | 113.07954 | 16664 ft | 454 kts | 182° |
| 2026-04-25 01:03 | 23.39792 | 113.07979 | 17090 ft | 456 kts | 182° |
| 2026-04-25 01:04 | 23.36586 | 113.07998 | 17527 ft | 459 kts | 182° |
| 2026-04-25 01:04 | 23.33398 | 113.08015 | 17961 ft | 461 kts | 182° |
| 2026-04-25 01:04 | 23.30173 | 113.08050 | 18359 ft | 465 kts | 180° |
| 2026-04-25 01:04 | 23.26955 | 113.08416 | 18742 ft | 471 kts | 173° |
| 2026-04-25 01:05 | 23.23717 | 113.09252 | 19135 ft | 476 kts | 165° |
| 2026-04-25 01:05 | 23.20589 | 113.10511 | 19552 ft | 480 kts | 160° |
| 2026-04-25 01:05 | 23.17535 | 113.11907 | 19939 ft | 483 kts | 159° |
| 2026-04-25 01:05 | 23.14448 | 113.13351 | 20309 ft | 485 kts | 159° |
| 2026-04-25 01:06 | 23.11329 | 113.14802 | 20693 ft | 487 kts | 159° |
| 2026-04-25 01:06 | 23.08174 | 113.16254 | 21083 ft | 489 kts | 160° |
| 2026-04-25 01:06 | 23.05044 | 113.17679 | 21426 ft | 492 kts | 160° |
| 2026-04-25 01:06 | 23.01831 | 113.19054 | 21784 ft | 493 kts | 162° |
| 2026-04-25 01:07 | 22.98588 | 113.20244 | 22146 ft | 494 kts | 165° |
| 2026-04-25 01:07 | 22.95324 | 113.21381 | 22483 ft | 496 kts | 165° |
| 2026-04-25 01:07 | 22.92030 | 113.22518 | 22777 ft | 499 kts | 165° |
| 2026-04-25 01:07 | 22.88702 | 113.23668 | 23113 ft | 500 kts | 165° |
| 2026-04-25 01:08 | 22.85352 | 113.24826 | 23441 ft | 502 kts | 165° |
| 2026-04-25 01:08 | 22.82040 | 113.25974 | 23619 ft | 503 kts | 165° |
| 2026-04-25 01:08 | 22.78707 | 113.27129 | 23615 ft | 503 kts | 165° |
| 2026-04-25 01:08 | 22.75377 | 113.28284 | 23619 ft | 503 kts | 165° |
| 2026-04-25 01:09 | 22.72047 | 113.29437 | 23620 ft | 503 kts | 165° |
| 2026-04-25 01:09 | 22.68686 | 113.30602 | 23620 ft | 502 kts | 165° |
| 2026-04-25 01:09 | 22.65381 | 113.31744 | 23621 ft | 502 kts | 165° |
| 2026-04-25 01:09 | 22.62019 | 113.32907 | 23622 ft | 502 kts | 165° |
| 2026-04-25 01:10 | 22.58717 | 113.34049 | 23622 ft | 502 kts | 165° |
| 2026-04-25 01:10 | 22.55343 | 113.35216 | 23618 ft | 502 kts | 165° |
| 2026-04-25 01:10 | 22.52045 | 113.36353 | 23617 ft | 501 kts | 165° |
| 2026-04-25 01:10 | 22.48730 | 113.37498 | 23623 ft | 502 kts | 165° |
| 2026-04-25 01:11 | 22.45378 | 113.38656 | 23620 ft | 501 kts | 165° |
| 2026-04-25 01:11 | 22.42073 | 113.39795 | 23620 ft | 500 kts | 165° |
| 2026-04-25 01:11 | 22.38754 | 113.40939 | 23622 ft | 500 kts | 165° |
| 2026-04-25 01:11 | 22.35447 | 113.42080 | 23622 ft | 501 kts | 165° |
| 2026-04-25 01:12 | 22.32097 | 113.43212 | 23624 ft | 499 kts | 167° |
| 2026-04-25 01:12 | 22.28706 | 113.43696 | 23610 ft | 490 kts | 185° |
| 2026-04-25 01:12 | 22.25361 | 113.43075 | 23621 ft | 483 kts | 201° |
| 2026-04-25 01:12 | 22.22365 | 113.41485 | 23623 ft | 475 kts | 217° |
| 2026-04-25 01:13 | 22.19960 | 113.39143 | 23629 ft | 469 kts | 232° |
| 2026-04-25 01:13 | 22.18230 | 113.36216 | 23629 ft | 463 kts | 247° |
| 2026-04-25 01:13 | 22.17017 | 113.32978 | 23637 ft | 463 kts | 251° |
| 2026-04-25 01:13 | 22.15866 | 113.29770 | 23635 ft | 462 kts | 251° |
| 2026-04-25 01:14 | 22.14682 | 113.26507 | 23631 ft | 463 kts | 250° |
| 2026-04-25 01:14 | 22.13469 | 113.23329 | 23635 ft | 465 kts | 248° |
| 2026-04-25 01:14 | 22.12158 | 113.20158 | 23633 ft | 465 kts | 248° |
| 2026-04-25 01:14 | 22.10825 | 113.16953 | 23630 ft | 465 kts | 248° |
| 2026-04-25 01:15 | 22.09507 | 113.13789 | 23631 ft | 465 kts | 248° |
| 2026-04-25 01:15 | 22.08182 | 113.10605 | 23630 ft | 465 kts | 248° |
| 2026-04-25 01:15 | 22.06869 | 113.07449 | 23626 ft | 466 kts | 248° |
| 2026-04-25 01:15 | 22.05532 | 113.04239 | 23626 ft | 465 kts | 248° |
| 2026-04-25 01:16 | 22.04222 | 113.01092 | 23624 ft | 466 kts | 248° |
| 2026-04-25 01:16 | 22.02907 | 112.97874 | 23625 ft | 466 kts | 249° |
| 2026-04-25 01:16 | 22.01662 | 112.94685 | 23625 ft | 465 kts | 249° |
| 2026-04-25 01:16 | 22.00419 | 112.91456 | 23623 ft | 466 kts | 249° |
| 2026-04-25 01:17 | 21.99179 | 112.88242 | 23626 ft | 466 kts | 249° |
| 2026-04-25 01:17 | 21.98346 | 112.86095 | 23621 ft | 466 kts | 249° |
| 2026-04-25 01:17 | 21.96676 | 112.81807 | 23623 ft | 466 kts | 249° |
| 2026-04-25 01:17 | 21.95397 | 112.78605 | 23629 ft | 466 kts | 248° |
| 2026-04-25 01:18 | 21.94111 | 112.75429 | 23630 ft | 466 kts | 248° |
| 2026-04-25 01:18 | 21.92823 | 112.72250 | 23628 ft | 466 kts | 248° |
| 2026-04-25 01:18 | 21.91529 | 112.69055 | 23623 ft | 466 kts | 248° |
| 2026-04-25 01:18 | 21.90233 | 112.65848 | 23622 ft | 465 kts | 248° |
| 2026-04-25 01:19 | 21.88945 | 112.62658 | 23621 ft | 465 kts | 248° |
| 2026-04-25 01:19 | 21.87654 | 112.59460 | 23624 ft | 465 kts | 248° |
| 2026-04-25 01:19 | 21.86369 | 112.56279 | 23624 ft | 466 kts | 248° |
| 2026-04-25 01:19 | 21.85090 | 112.53108 | 23622 ft | 466 kts | 249° |
| 2026-04-25 01:20 | 21.83808 | 112.49891 | 23619 ft | 465 kts | 249° |
| 2026-04-25 01:20 | 21.82544 | 112.46706 | 23625 ft | 465 kts | 249° |
| 2026-04-25 01:20 | 21.81274 | 112.43500 | 23622 ft | 466 kts | 249° |
| 2026-04-25 01:20 | 21.80010 | 112.40315 | 23620 ft | 466 kts | 249° |
| 2026-04-25 01:21 | 21.78746 | 112.37132 | 23620 ft | 465 kts | 249° |
| 2026-04-25 01:21 | 21.77471 | 112.33923 | 23622 ft | 466 kts | 248° |
| 2026-04-25 01:21 | 21.76199 | 112.30723 | 23617 ft | 466 kts | 248° |
| 2026-04-25 01:21 | 21.74921 | 112.27517 | 23622 ft | 465 kts | 248° |
| 2026-04-25 01:22 | 21.73663 | 112.24356 | 23628 ft | 466 kts | 248° |
| 2026-04-25 01:22 | 21.72388 | 112.21156 | 23620 ft | 466 kts | 248° |
| 2026-04-25 01:22 | 21.71111 | 112.17955 | 23622 ft | 465 kts | 248° |
| 2026-04-25 01:22 | 21.69833 | 112.14750 | 23615 ft | 465 kts | 248° |
| 2026-04-25 01:23 | 21.68569 | 112.11584 | 23620 ft | 465 kts | 248° |
| 2026-04-25 01:23 | 21.67281 | 112.08361 | 23622 ft | 466 kts | 248° |
| 2026-04-25 01:23 | 21.66012 | 112.05186 | 23620 ft | 466 kts | 248° |
| 2026-04-25 01:23 | 21.64730 | 112.01979 | 23622 ft | 465 kts | 248° |
| 2026-04-25 01:24 | 21.63454 | 111.98789 | 23619 ft | 465 kts | 248° |
| 2026-04-25 01:24 | 21.62183 | 111.95613 | 23619 ft | 466 kts | 248° |
| 2026-04-25 01:24 | 21.60897 | 111.92402 | 23624 ft | 465 kts | 248° |
| 2026-04-25 01:24 | 21.59633 | 111.89250 | 23622 ft | 466 kts | 248° |
| 2026-04-25 01:25 | 21.58282 | 111.86063 | 23621 ft | 467 kts | 245° |
| 2026-04-25 01:25 | 21.56689 | 111.83012 | 23622 ft | 467 kts | 240° |
| 2026-04-25 01:25 | 21.54875 | 111.80153 | 23623 ft | 469 kts | 235° |
| 2026-04-25 01:25 | 21.52816 | 111.77408 | 23618 ft | 470 kts | 232° |
| 2026-04-25 01:26 | 21.50699 | 111.74728 | 23620 ft | 470 kts | 232° |
| 2026-04-25 01:26 | 21.48582 | 111.72076 | 23620 ft | 470 kts | 232° |
| 2026-04-25 01:26 | 21.46466 | 111.69427 | 23621 ft | 471 kts | 231° |
| 2026-04-25 01:26 | 21.44322 | 111.66738 | 23619 ft | 471 kts | 231° |
| 2026-04-25 01:27 | 21.42202 | 111.64082 | 23624 ft | 471 kts | 232° |
| 2026-04-25 01:27 | 21.40080 | 111.61418 | 23615 ft | 471 kts | 232° |
| 2026-04-25 01:27 | 21.37964 | 111.58765 | 23618 ft | 470 kts | 232° |
| 2026-04-25 01:28 | 21.33689 | 111.53399 | 23620 ft | 471 kts | 232° |
| 2026-04-25 01:28 | 21.31582 | 111.50755 | 23620 ft | 471 kts | 232° |
| 2026-04-25 01:28 | 21.29445 | 111.48078 | 23619 ft | 471 kts | 232° |
| 2026-04-25 01:28 | 21.27315 | 111.45409 | 23621 ft | 471 kts | 231° |
| 2026-04-25 01:29 | 21.25185 | 111.42742 | 23621 ft | 472 kts | 232° |
| 2026-04-25 01:29 | 21.23061 | 111.40083 | 23622 ft | 472 kts | 232° |
| 2026-04-25 01:29 | 21.20909 | 111.37391 | 23619 ft | 471 kts | 232° |
| 2026-04-25 01:29 | 21.18778 | 111.34726 | 23623 ft | 472 kts | 231° |
| 2026-04-25 01:30 | 21.16655 | 111.32071 | 23621 ft | 472 kts | 231° |
| 2026-04-25 01:30 | 21.14527 | 111.29412 | 23624 ft | 472 kts | 231° |
| 2026-04-25 01:30 | 21.12393 | 111.26745 | 23622 ft | 472 kts | 231° |
| 2026-04-25 01:30 | 21.10259 | 111.24081 | 23619 ft | 472 kts | 231° |
| 2026-04-25 01:31 | 21.08098 | 111.21382 | 23617 ft | 472 kts | 231° |
| 2026-04-25 01:31 | 21.05959 | 111.18713 | 23618 ft | 472 kts | 231° |
| 2026-04-25 01:31 | 21.03833 | 111.16060 | 23620 ft | 472 kts | 231° |
| 2026-04-25 01:31 | 21.01703 | 111.13406 | 23622 ft | 472 kts | 231° |
| 2026-04-25 01:32 | 20.99573 | 111.10751 | 23619 ft | 473 kts | 231° |
| 2026-04-25 01:32 | 20.97334 | 111.08144 | 23616 ft | 475 kts | 226° |
| 2026-04-25 01:32 | 20.94792 | 111.05875 | 23621 ft | 477 kts | 218° |
| 2026-04-25 01:32 | 20.91967 | 111.03973 | 23621 ft | 480 kts | 210° |
| 2026-04-25 01:33 | 20.88942 | 111.02426 | 23623 ft | 481 kts | 207° |
| 2026-04-25 01:33 | 20.85886 | 111.00977 | 23616 ft | 481 kts | 206° |
| 2026-04-25 01:33 | 20.82839 | 110.99549 | 23616 ft | 480 kts | 206° |
| 2026-04-25 01:33 | 20.79785 | 110.98116 | 23616 ft | 481 kts | 206° |
| 2026-04-25 01:34 | 20.76698 | 110.96660 | 23616 ft | 480 kts | 206° |
| 2026-04-25 01:34 | 20.73630 | 110.95208 | 23614 ft | 480 kts | 206° |
| 2026-04-25 01:34 | 20.70603 | 110.93774 | 23614 ft | 480 kts | 206° |
| 2026-04-25 01:34 | 20.67540 | 110.92320 | 23616 ft | 480 kts | 206° |
| 2026-04-25 01:35 | 20.64473 | 110.90864 | 23614 ft | 480 kts | 206° |
| 2026-04-25 01:35 | 20.61435 | 110.89423 | 23608 ft | 479 kts | 206° |
| 2026-04-25 01:35 | 20.58369 | 110.87971 | 23609 ft | 479 kts | 206° |
| 2026-04-25 01:35 | 20.55329 | 110.86529 | 23611 ft | 480 kts | 206° |
| 2026-04-25 01:36 | 20.52232 | 110.85226 | 23604 ft | 474 kts | 201° |
| 2026-04-25 01:36 | 20.49120 | 110.84299 | 23610 ft | 454 kts | 195° |
| 2026-04-25 01:36 | 20.46053 | 110.83726 | 23610 ft | 437 kts | 190° |
| 2026-04-25 01:36 | 20.43076 | 110.83433 | 23604 ft | 419 kts | 187° |
| 2026-04-25 01:37 | 20.40229 | 110.83215 | 23603 ft | 402 kts | 187° |
| 2026-04-25 01:37 | 20.37484 | 110.83013 | 23607 ft | 393 kts | 187° |
| 2026-04-25 01:37 | 20.34746 | 110.82806 | 23607 ft | 392 kts | 187° |
| 2026-04-25 01:37 | 20.32025 | 110.82597 | 23607 ft | 392 kts | 187° |
| 2026-04-25 01:38 | 20.29293 | 110.82385 | 23606 ft | 392 kts | 187° |
| 2026-04-25 01:38 | 20.26566 | 110.82172 | 23605 ft | 392 kts | 188° |
| 2026-04-25 01:38 | 20.23828 | 110.81958 | 23607 ft | 393 kts | 188° |
| 2026-04-25 01:38 | 20.21116 | 110.81748 | 23601 ft | 392 kts | 187° |
| 2026-04-25 01:39 | 20.18380 | 110.81536 | 23601 ft | 392 kts | 187° |
| 2026-04-25 01:39 | 20.15653 | 110.81324 | 23604 ft | 392 kts | 188° |
| 2026-04-25 01:39 | 20.12939 | 110.81113 | 23603 ft | 391 kts | 187° |
| 2026-04-25 01:39 | 20.10217 | 110.80901 | 23599 ft | 390 kts | 187° |
| 2026-04-25 01:40 | 20.07565 | 110.80699 | 23275 ft | 379 kts | 187° |
| 2026-04-25 01:40 | 20.04935 | 110.80492 | 22399 ft | 378 kts | 187° |
| 2026-04-25 01:40 | 20.02343 | 110.80280 | 21469 ft | 376 kts | 187° |
| 2026-04-25 01:40 | 19.99744 | 110.80060 | 20574 ft | 374 kts | 187° |
| 2026-04-25 01:41 | 19.97171 | 110.79841 | 19687 ft | 371 kts | 187° |
| 2026-04-25 01:41 | 19.94609 | 110.79623 | 18813 ft | 368 kts | 187° |
| 2026-04-25 01:41 | 19.92073 | 110.79409 | 17940 ft | 365 kts | 186° |
| 2026-04-25 01:41 | 19.89769 | 110.79213 | 17156 ft | 362 kts | 186° |
| 2026-04-25 01:42 | 19.88284 | 110.79087 | 16660 ft | 360 kts | 186° |
| 2026-04-25 01:42 | 19.85800 | 110.78879 | 16139 ft | 349 kts | 186° |
| 2026-04-25 01:42 | 19.83378 | 110.78696 | 15718 ft | 347 kts | 185° |
| 2026-04-25 01:42 | 19.81003 | 110.78542 | 15310 ft | 345 kts | 187° |
| 2026-04-25 01:43 | 19.78700 | 110.77869 | 14851 ft | 341 kts | 212° |
| 2026-04-25 01:43 | 19.76960 | 110.76235 | 14438 ft | 333 kts | 238° |
| 2026-04-25 01:43 | 19.76010 | 110.74021 | 14013 ft | 327 kts | 261° |
| 2026-04-25 01:43 | 19.75865 | 110.71660 | 13616 ft | 322 kts | 273° |
| 2026-04-25 01:44 | 19.75904 | 110.69292 | 13213 ft | 322 kts | 273° |
| 2026-04-25 01:44 | 19.75935 | 110.66918 | 12808 ft | 321 kts | 273° |
| 2026-04-25 01:44 | 19.75950 | 110.64569 | 12410 ft | 320 kts | 272° |
| 2026-04-25 01:44 | 19.75955 | 110.62220 | 12014 ft | 319 kts | 272° |
| 2026-04-25 01:45 | 19.75955 | 110.59886 | 11624 ft | 317 kts | 272° |
| 2026-04-25 01:45 | 19.75951 | 110.57530 | 11228 ft | 316 kts | 272° |
| 2026-04-25 01:45 | 19.75946 | 110.55226 | 10845 ft | 314 kts | 272° |
| 2026-04-25 01:45 | 19.75942 | 110.52921 | 10468 ft | 312 kts | 272° |
| 2026-04-25 01:46 | 19.75937 | 110.50651 | 10176 ft | 306 kts | 271° |
| 2026-04-25 01:46 | 19.75930 | 110.48410 | 10066 ft | 294 kts | 271° |
| 2026-04-25 01:46 | 19.75924 | 110.46301 | 9914 ft | 285 kts | 272° |
| 2026-04-25 01:46 | 19.75919 | 110.44192 | 9561 ft | 284 kts | 272° |
| 2026-04-25 01:47 | 19.75915 | 110.42127 | 9223 ft | 282 kts | 271° |
| 2026-04-25 01:47 | 19.75911 | 110.40031 | 8875 ft | 282 kts | 271° |
| 2026-04-25 01:47 | 19.75904 | 110.37972 | 8510 ft | 281 kts | 272° |
| 2026-04-25 01:47 | 19.75899 | 110.35899 | 8159 ft | 280 kts | 271° |
| 2026-04-25 01:48 | 19.75894 | 110.34197 | 7876 ft | 279 kts | 271° |
| 2026-04-25 01:48 | 19.75890 | 110.32978 | 7674 ft | 278 kts | 271° |
| 2026-04-25 01:48 | 19.75884 | 110.30956 | 7342 ft | 277 kts | 271° |
| 2026-04-25 01:48 | 19.75877 | 110.28910 | 7009 ft | 275 kts | 271° |
| 2026-04-25 01:49 | 19.75870 | 110.26874 | 6672 ft | 274 kts | 271° |
| 2026-04-25 01:49 | 19.75863 | 110.24866 | 6344 ft | 273 kts | 271° |
| 2026-04-25 01:49 | 19.76029 | 110.22875 | 5978 ft | 270 kts | 290° |
| 2026-04-25 01:49 | 19.76998 | 110.21217 | 5641 ft | 266 kts | 317° |
| 2026-04-25 01:50 | 19.78384 | 110.19923 | 5323 ft | 264 kts | 320° |
| 2026-04-25 01:50 | 19.79757 | 110.18665 | 5004 ft | 263 kts | 320° |
| 2026-04-25 01:50 | 19.81137 | 110.17382 | 4775 ft | 258 kts | 320° |
| 2026-04-25 01:50 | 19.82440 | 110.16156 | 4753 ft | 243 kts | 319° |
| 2026-04-25 01:51 | 19.83678 | 110.14985 | 4727 ft | 236 kts | 320° |
| 2026-04-25 01:51 | 19.85014 | 110.13979 | 4651 ft | 234 kts | 342° |
| 2026-04-25 01:51 | 19.86615 | 110.13755 | 4396 ft | 233 kts | 2° |
| 2026-04-25 01:51 | 19.88237 | 110.13793 | 4101 ft | 233 kts | 2° |
| 2026-04-25 01:52 | 19.89849 | 110.13814 | 3866 ft | 229 kts | 2° |
| 2026-04-25 01:52 | 19.91446 | 110.13820 | 3650 ft | 225 kts | 2° |
| 2026-04-25 01:52 | 19.93007 | 110.13846 | 3399 ft | 222 kts | 12° |
| 2026-04-25 01:52 | 19.94363 | 110.14482 | 3116 ft | 216 kts | 45° |
| 2026-04-25 01:53 | 19.95128 | 110.15825 | 2929 ft | 211 kts | 77° |
| 2026-04-25 01:53 | 19.95312 | 110.17358 | 2925 ft | 212 kts | 88° |
| 2026-04-25 01:53 | 19.95344 | 110.18913 | 2920 ft | 212 kts | 90° |
| 2026-04-25 01:53 | 19.95342 | 110.20499 | 2916 ft | 212 kts | 90° |
| 2026-04-25 01:54 | 19.95335 | 110.22046 | 2915 ft | 212 kts | 90° |
| 2026-04-25 01:54 | 19.95331 | 110.23637 | 2918 ft | 218 kts | 90° |
| 2026-04-25 01:54 | 19.95330 | 110.25247 | 2916 ft | 218 kts | 90° |
| 2026-04-25 01:54 | 19.95331 | 110.26862 | 2915 ft | 218 kts | 90° |
| 2026-04-25 01:55 | 19.95333 | 110.28492 | 2873 ft | 216 kts | 90° |
| 2026-04-25 01:55 | 19.95336 | 110.30072 | 2654 ft | 213 kts | 89° |
| 2026-04-25 01:55 | 19.95339 | 110.31629 | 2379 ft | 207 kts | 89° |
| 2026-04-25 01:55 | 19.95342 | 110.33089 | 2159 ft | 190 kts | 89° |
| 2026-04-25 01:56 | 19.95344 | 110.34438 | 1946 ft | 171 kts | 89° |
| 2026-04-25 01:56 | 19.95347 | 110.35620 | 1726 ft | 154 kts | 90° |
| 2026-04-25 01:56 | 19.95349 | 110.36709 | 1491 ft | 140 kts | 89° |
| 2026-04-25 01:56 | 19.95352 | 110.37690 | 1286 ft | 129 kts | 89° |
| 2026-04-25 01:57 | 19.95353 | 110.39624 | 989 ft | 131 kts | 89° |
| 2026-04-25 01:57 | 19.95353 | 110.40590 | 825 ft | 131 kts | 88° |
| 2026-04-25 01:57 | 19.95364 | 110.41552 | 661 ft | 132 kts | 88° |
| 2026-04-25 01:58 | 19.95372 | 110.42532 | 495 ft | 133 kts | 89° |
| 2026-04-25 01:58 | 19.95364 | 110.43521 | 315 ft | 133 kts | 89° |
| 2026-04-25 01:58 | 19.95368 | 110.44506 | 170 ft | 134 kts | 89° |
| 2026-04-25 01:58 | 19.95372 | 110.45483 | 65 ft | 125 kts | 88° |
| 2026-04-25 01:59 | 19.95381 | 110.46230 | 58 ft | 76 kts | 92° |
| 2026-04-25 01:59 | 19.95379 | 110.46613 | 54 ft | 30 kts | 89° |
| 2026-04-25 01:59 | 19.95382 | 110.46815 | 56 ft | 23 kts | 93° |
| 2026-04-25 01:59 | 19.95347 | 110.46980 | 55 ft | 22 kts | 105° |
| 2026-04-25 02:00 | 19.95299 | 110.47105 | 54 ft | 16 kts | 117° |
| 2026-04-25 02:00 | 19.95215 | 110.47110 | 53 ft | 15 kts | 239° |
| 2026-04-25 02:00 | 19.95207 | 110.46997 | 52 ft | 15 kts | 272° |
| 2026-04-25 02:00 | 19.95194 | 110.46886 | 52 ft | 15 kts | 226° |
| 2026-04-25 02:01 | 19.95123 | 110.46807 | 51 ft | 15 kts | 267° |
| 2026-04-25 02:01 | 19.95124 | 110.46689 | 51 ft | 16 kts | 270° |
| 2026-04-25 02:01 | 19.95124 | 110.46576 | 54 ft | 14 kts | 269° |
| 2026-04-25 02:01 | 19.95124 | 110.46461 | 55 ft | 16 kts | 270° |
| 2026-04-25 02:02 | 19.95102 | 110.46355 | 57 ft | 7 kts | 204° |
| 2026-04-25 02:02 | 19.95056 | 110.46315 | 59 ft | 9 kts | 242° |
| 2026-04-25 02:02 | 19.95026 | 110.46252 | 61 ft | 9 kts | 240° |
| 2026-04-25 02:02 | 19.94993 | 110.46189 | 64 ft | 7 kts | 242° |
| 2026-04-25 02:03 | 19.94977 | 110.46157 | 65 ft | 2 kts | 240° |
| 2026-04-25 02:03 | 19.94977 | 110.46156 | 65 ft | 0 kts | 240° |